Terminal Aerodrome Forecast
Issued by NWS

Home | Current Version | Previous Version | Text Only | Print | Product List | Glossary On
Versions: 1 2 3 4 5 6 7 8 9 10 11 12 13 14 15 16 17 18 19 20 21 22 23 24 25 26 27 28 29 30
000
FTUS45 KGJT 041739
TAFMTJ
TAF
KMTJ 041739Z 0418/0518 15010KT P6SM SCT100 BKN150
     FM041900 29010KT P6SM VCTS SCT080CB BKN150
      TEMPO 0421/0424 VRB15G30KT -TSRA BKN080CB
     FM050000 15010KT P6SM OVC100
     FM050700 16006KT P6SM BKN120
     FM051200 14005KT P6SM VCSH SCT070 BKN090=

USA.gov is the U.S. government's official web portal to all federal, state and local government web resources and services.